Home   Weather   Germany   Hofheim am Taunus   Past weeks
Flag for Germany

Past Weather in Hofheim am Taunus, Hesse, Germany — Yesterday and Last 2 Weeks

Currently: 63 °F. Light rain. Clear. (Weather station: Frankfurt-M-Flughafen Airport, Germany). See more current weather

Past Weather in Hofheim am Taunus — Graph

°F

Hofheim am Taunus Temperature Yesterday

Maximum temperature yesterday: 70 °F (at 3:20 pm)
Minimum temperature yesterday: 55 °F (at 11:50 pm)
Average temperature yesterday: 63 °F

High & Low Weather Summary for the Past Weeks

 TemperatureHumidityPressure
High77 °F (Jun 8, 3:50 pm)100% (Jun 4, 2:50 am)30.12 "Hg (Jun 4, 2:50 am)
Low45 °F (Jun 7, 4:20 am)25% (Jun 9, 6:20 pm)29.65 "Hg (Jun 15, 2:50 am)
Average61 °F64%29.94 "Hg
* Reported Jun 1 10:20 pm — Jun 16 10:20 pm, Hofheim am Taunus. Weather by CustomWeather, © 2024

Note: Actual official high and low records may vary slightly from our data, if they occured in-between our weather recording intervals... More about our weather records

Hofheim am Taunus Weather History for the Previous 24 Hours

Scroll right to see more
 ConditionsComfort  
Time TempWeatherWind HumidityBarometerVisibility
10:20 pm
Sun, Jun 16
63 °FPassing clouds.3 mph68%29.86 "HgN/A
9:50 pm64 °FClear.6 mph64%29.83 "Hg10 mi
9:20 pm64 °FPassing clouds.10 mph64%29.83 "HgN/A
8:50 pm66 °FSunny.13 mph60%29.83 "Hg10 mi
8:20 pm66 °FSunny.13 mph56%29.83 "Hg10 mi
7:50 pm66 °FSunny.14 mph56%29.80 "Hg10 mi
7:20 pm68 °FSunny.12 mph53%29.80 "Hg10 mi
6:20 pm68 °FSunny.13 mph49%29.80 "Hg10 mi
5:50 pm68 °FSunny.9 mph49%29.80 "Hg10 mi
5:20 pm68 °FSunny.13 mph49%29.80 "Hg10 mi
4:50 pm70 °FSunny.13 mph46%29.80 "Hg10 mi
4:20 pm70 °FSunny.15 mph43%29.80 "Hg10 mi
3:50 pm70 °FSunny.12 mph43%29.80 "Hg10 mi
3:20 pm70 °FSunny.12 mph46%29.80 "Hg10 mi
2:50 pm70 °FPassing clouds.12 mph46%29.80 "HgN/A
2:20 pm68 °FPassing clouds.13 mph49%29.80 "HgN/A
1:50 pm68 °FPassing clouds.14 mph46%29.80 "HgN/A
1:20 pm68 °FPassing clouds.15 mph49%29.83 "HgN/A
12:50 pm66 °FScattered clouds.13 mph52%29.83 "HgN/A
12:20 pm66 °FScattered clouds.15 mph52%29.83 "HgN/A
11:20 am66 °FScattered clouds.18 mph52%29.83 "HgN/A
10:50 am66 °FScattered clouds.17 mph56%29.83 "HgN/A
10:20 am66 °FScattered clouds.17 mph56%29.83 "HgN/A
9:50 am64 °FScattered clouds.13 mph60%29.83 "HgN/A
9:20 am64 °FScattered clouds.10 mph64%29.83 "HgN/A
8:20 am61 °FScattered clouds.8 mph68%29.83 "HgN/A
7:20 am59 °FSunny.8 mph77%29.83 "Hg10 mi
6:50 am57 °FSunny.6 mph82%29.83 "Hg10 mi
6:20 am55 °FPassing clouds.7 mph82%29.83 "HgN/A
5:50 am54 °FSunny.8 mph88%29.83 "Hg10 mi
5:20 am54 °FPassing clouds.3 mph82%29.83 "HgN/A
4:50 am54 °FPassing clouds.2 mph88%29.83 "HgN/A
4:20 am54 °FClear.3 mph82%29.83 "Hg10 mi
3:50 am54 °FClear.2 mph82%29.83 "Hg10 mi
3:20 am54 °FPassing clouds.3 mph82%29.83 "HgN/A
2:50 am54 °FClear.3 mph82%29.83 "Hg10 mi
1:50 am55 °FClear.2 mph72%29.83 "Hg10 mi
1:20 am57 °FClear.5 mph67%29.83 "Hg10 mi
12:50 am55 °FClear.8 mph67%29.83 "Hg10 mi
12:20 am55 °FClear.7 mph67%29.83 "Hg10 mi
11:50 pm
Sat, Jun 15
55 °FClear.7 mph72%29.83 "Hg10 mi
11:20 pm59 °FClear.5 mph59%29.83 "Hg10 mi
Weather by CustomWeather, © 2024

See weather overview